createdAt,value
2023-02-16T00:00:26.706Z,7.21
2023-02-16T00:01:26.753Z,7.14
2023-02-16T00:02:26.796Z,7.2
2023-02-16T00:03:26.517Z,7.18
2023-02-16T00:04:26.555Z,7.18
2023-02-16T00:05:26.511Z,7.2
2023-02-16T00:06:26.499Z,7.21
2023-02-16T00:07:26.430Z,7.28
2023-02-16T00:08:26.213Z,7.11
2023-02-16T00:09:26.388Z,7.15
2023-02-16T00:10:26.343Z,7.14
2023-02-16T00:11:26.293Z,7.17
2023-02-16T00:12:26.268Z,7.17
2023-02-16T00:13:26.237Z,7.13
2023-02-16T00:14:26.248Z,7.07
2023-02-16T00:15:26.212Z,7.15
2023-02-16T00:16:26.409Z,7.1
2023-02-16T00:17:26.104Z,7.13
2023-02-16T00:18:26.102Z,7.13
2023-02-16T00:19:26.049Z,7.15
2023-02-16T00:20:26.007Z,7.1
2023-02-16T00:21:25.997Z,7.1
2023-02-16T00:22:25.947Z,7.1
2023-02-16T00:23:25.910Z,7.06
2023-02-16T00:24:25.877Z,6.96
2023-02-16T00:25:25.871Z,7.06
2023-02-16T00:26:25.869Z,7.03
2023-02-16T00:27:25.779Z,6.93
2023-02-16T00:28:25.743Z,7.05
2023-02-16T00:29:25.715Z,6.95
2023-02-16T00:30:25.922Z,6.85
2023-02-16T00:31:26.104Z,6.89
2023-02-16T00:32:25.890Z,6.85
2023-02-16T00:33:25.602Z,6.82
2023-02-16T00:34:25.597Z,6.87
2023-02-16T00:35:25.526Z,6.82
2023-02-16T00:36:25.507Z,6.84
2023-02-16T00:37:25.460Z,6.77
2023-02-16T00:38:25.425Z,6.82
2023-02-16T00:39:25.400Z,6.79
2023-02-16T00:40:25.362Z,6.79
2023-02-16T00:41:25.331Z,6.82
2023-02-16T00:42:25.297Z,6.78
2023-02-16T00:43:25.265Z,6.77
2023-02-16T00:44:25.229Z,6.82
2023-02-16T00:45:25.194Z,6.78
2023-02-16T00:46:25.273Z,6.77
2023-02-16T00:47:25.164Z,6.77
2023-02-16T00:48:25.125Z,6.77
2023-02-16T00:49:25.082Z,6.82
2023-02-16T00:50:25.197Z,6.77
2023-02-16T00:51:31.218Z,6.7
2023-02-16T00:52:24.957Z,6.78
2023-02-16T00:53:24.932Z,6.72
2023-02-16T00:54:24.895Z,6.67
2023-02-16T00:55:24.876Z,6.72
2023-02-16T00:56:24.842Z,6.75
2023-02-16T00:57:24.815Z,6.82
2023-02-16T00:58:24.770Z,6.67
2023-02-16T00:59:24.765Z,6.7
2023-02-16T01:00:24.718Z,6.75
2023-02-16T01:01:24.837Z,6.72
2023-02-16T01:02:24.654Z,6.66
2023-02-16T01:03:24.596Z,6.69
2023-02-16T01:04:24.765Z,6.67
2023-02-16T01:05:24.566Z,6.77
2023-02-16T01:06:24.521Z,6.69
2023-02-16T01:07:24.471Z,6.72
2023-02-16T01:08:24.438Z,6.59
2023-02-16T01:09:24.402Z,6.69
2023-02-16T01:10:24.390Z,6.75
2023-02-16T01:11:24.347Z,6.67
2023-02-16T01:12:24.329Z,6.69
2023-02-16T01:13:24.276Z,6.67
2023-02-16T01:14:24.230Z,6.77
2023-02-16T01:15:23.960Z,6.82
2023-02-16T01:16:24.292Z,6.72
2023-02-16T01:17:24.142Z,6.84
2023-02-16T01:18:24.091Z,6.88
2023-02-16T01:19:24.072Z,6.93
2023-02-16T01:20:24.073Z,6.84
2023-02-16T01:21:24.014Z,6.89
2023-02-16T01:22:24.048Z,6.82
2023-02-16T01:23:23.951Z,6.87
2023-02-16T01:24:23.902Z,6.92
2023-02-16T01:25:24.075Z,6.88
2023-02-16T01:26:23.846Z,6.92
2023-02-16T01:27:23.820Z,6.88
2023-02-16T01:28:23.786Z,6.84
2023-02-16T01:29:23.787Z,6.79
2023-02-16T01:30:24.057Z,6.87
2023-02-16T01:31:23.875Z,6.81
2023-02-16T01:32:24.379Z,6.81
2023-02-16T01:33:23.620Z,6.85
2023-02-16T01:34:23.607Z,6.79
2023-02-16T01:35:23.561Z,6.84
2023-02-16T01:36:23.549Z,6.85
2023-02-16T01:37:23.512Z,6.77
2023-02-16T01:38:23.621Z,6.77
2023-02-16T01:39:23.427Z,6.75
2023-02-16T01:40:23.373Z,6.81
2023-02-16T01:41:23.116Z,6.67
2023-02-16T01:42:23.322Z,6.72
2023-02-16T01:43:23.330Z,6.67
2023-02-16T01:44:23.273Z,6.74
2023-02-16T01:45:23.218Z,6.77
2023-02-16T01:46:23.302Z,6.64
2023-02-16T01:47:23.159Z,6.69
2023-02-16T01:48:23.117Z,6.62
2023-02-16T01:49:23.076Z,6.63
2023-02-16T01:50:23.118Z,6.7
2023-02-16T01:51:23.022Z,6.59
2023-02-16T01:52:23.148Z,6.69
2023-02-16T01:53:22.954Z,6.67
2023-02-16T01:54:22.950Z,6.64
2023-02-16T01:55:22.878Z,6.64
2023-02-16T01:56:22.856Z,6.66
2023-02-16T01:57:22.830Z,6.56
2023-02-16T01:58:22.819Z,6.62
2023-02-16T01:59:22.971Z,6.62
2023-02-16T02:00:22.745Z,6.56
2023-02-16T02:01:22.877Z,6.69
2023-02-16T02:02:22.788Z,6.63
2023-02-16T02:03:22.618Z,6.6
2023-02-16T02:04:22.592Z,6.59
2023-02-16T02:05:22.557Z,6.56
2023-02-16T02:06:22.547Z,6.67
2023-02-16T02:07:22.522Z,6.62
2023-02-16T02:08:22.472Z,6.54
2023-02-16T02:09:22.434Z,6.54
2023-02-16T02:10:22.175Z,6.45
2023-02-16T02:11:22.367Z,6.51
2023-02-16T02:12:22.328Z,6.59
2023-02-16T02:13:22.336Z,6.52
2023-02-16T02:14:22.251Z,6.51
2023-02-16T02:15:22.230Z,6.52
2023-02-16T02:16:22.439Z,6.48
2023-02-16T02:17:22.168Z,6.56
2023-02-16T02:18:22.136Z,6.57
2023-02-16T02:19:22.120Z,6.46
2023-02-16T02:20:22.267Z,6.49
2023-02-16T02:21:22.017Z,6.51
2023-02-16T02:22:22.027Z,6.54
2023-02-16T02:23:21.970Z,6.49
2023-02-16T02:24:21.966Z,6.54
2023-02-16T02:25:21.894Z,6.48
2023-02-16T02:26:21.892Z,6.48
2023-02-16T02:27:21.588Z,6.52
2023-02-16T02:28:21.806Z,6.49
2023-02-16T02:29:21.767Z,6.49
2023-02-16T02:30:22.046Z,6.52
2023-02-16T02:31:22.096Z,6.48
2023-02-16T02:32:21.943Z,6.52
2023-02-16T02:33:21.632Z,6.45
2023-02-16T02:34:21.612Z,6.46
2023-02-16T02:35:21.654Z,6.31
2023-02-16T02:36:21.689Z,6.44
2023-02-16T02:37:21.502Z,6.31
2023-02-16T02:38:21.494Z,6.46
2023-02-16T02:39:21.484Z,6.45
2023-02-16T02:40:21.457Z,6.51
2023-02-16T02:41:21.365Z,6.49
2023-02-16T02:42:21.363Z,6.48
2023-02-16T02:43:21.310Z,6.49
2023-02-16T02:44:21.274Z,6.48
2023-02-16T02:45:21.233Z,6.49
2023-02-16T02:46:21.424Z,6.52
2023-02-16T02:47:21.176Z,6.48
2023-02-16T02:48:21.205Z,6.51
2023-02-16T02:49:21.118Z,6.49
2023-02-16T02:50:21.057Z,6.42
2023-02-16T02:51:21.037Z,6.42
2023-02-16T02:52:21.008Z,6.3
2023-02-16T02:53:20.976Z,6.39
2023-02-16T02:54:21.000Z,6.31
2023-02-16T02:55:20.937Z,6.26
2023-02-16T02:56:20.888Z,6.31
2023-02-16T02:57:20.848Z,6.27
2023-02-16T02:58:20.823Z,6.27
2023-02-16T02:59:20.794Z,6.27
2023-02-16T03:00:20.739Z,6.33
2023-02-16T03:01:20.815Z,6.35
2023-02-16T03:02:20.871Z,6.22
2023-02-16T03:03:20.655Z,6.26
2023-02-16T03:04:20.599Z,6.14
2023-02-16T03:05:20.578Z,6.27
2023-02-16T03:06:20.685Z,6.14
2023-02-16T03:07:20.500Z,6.26
2023-02-16T03:08:20.470Z,6.22
2023-02-16T03:09:20.460Z,6.2
2023-02-16T03:10:20.434Z,6.27
2023-02-16T03:11:20.422Z,6.31
2023-02-16T03:12:20.357Z,6.27
2023-02-16T03:13:20.308Z,6.27
2023-02-16T03:14:20.306Z,6.27
2023-02-16T03:15:20.248Z,6.27
2023-02-16T03:16:20.366Z,6.35
2023-02-16T03:17:20.181Z,6.27
2023-02-16T03:18:20.141Z,6.3
2023-02-16T03:19:20.101Z,6.3
2023-02-16T03:20:20.078Z,6.27
2023-02-16T03:21:20.042Z,6.26
2023-02-16T03:22:20.039Z,6.27
2023-02-16T03:23:19.978Z,6.26
2023-02-16T03:24:19.931Z,6.27
2023-02-16T03:25:19.898Z,6.24
2023-02-16T03:26:19.899Z,6.2
2023-02-16T03:27:19.851Z,6.26
2023-02-16T03:28:19.850Z,6.28
2023-02-16T03:29:19.768Z,6.28
2023-02-16T03:30:20.098Z,6.26
2023-02-16T03:31:20.338Z,6.3
2023-02-16T03:32:19.792Z,6.27
2023-02-16T03:33:19.648Z,6.24
2023-02-16T03:34:19.594Z,6.31
2023-02-16T03:35:19.593Z,6.2
2023-02-16T03:36:19.537Z,6.16
2023-02-16T03:37:19.505Z,6.16
2023-02-16T03:38:19.459Z,6.17
2023-02-16T03:39:19.423Z,6.17
2023-02-16T03:40:19.400Z,6.14
2023-02-16T03:41:19.394Z,6.17
2023-02-16T03:42:19.365Z,6.17
2023-02-16T03:43:19.302Z,6.17
2023-02-16T03:44:19.412Z,6.11
2023-02-16T03:45:19.315Z,6.17
2023-02-16T03:46:19.413Z,6.07
2023-02-16T03:47:19.233Z,6.09
2023-02-16T03:48:19.139Z,6.22
2023-02-16T03:49:19.108Z,6.12
2023-02-16T03:50:19.060Z,6.12
2023-02-16T03:51:19.044Z,6.17
2023-02-16T03:52:19.023Z,6.05
2023-02-16T03:53:20.714Z,6.22
2023-02-16T03:54:18.956Z,6.16
2023-02-16T03:55:18.962Z,6.14
2023-02-16T03:56:18.859Z,6.2
2023-02-16T03:57:18.834Z,6.19
2023-02-16T03:58:18.840Z,6.17
2023-02-16T03:59:18.769Z,6.19
2023-02-16T04:00:18.769Z,6.24
2023-02-16T04:01:18.707Z,6.17
2023-02-16T04:02:18.912Z,6.24
2023-02-16T04:03:18.640Z,6.24
2023-02-16T04:04:18.896Z,6.22
2023-02-16T04:05:18.567Z,6.3
2023-02-16T04:06:18.564Z,6.22
2023-02-16T04:07:18.503Z,6.27
2023-02-16T04:08:18.473Z,6.27
2023-02-16T04:09:18.436Z,6.33
2023-02-16T04:10:18.413Z,6.38
2023-02-16T04:11:18.516Z,6.3
2023-02-16T04:12:18.372Z,6.27
2023-02-16T04:13:18.341Z,6.33
2023-02-16T04:14:18.305Z,6.3
2023-02-16T04:15:18.261Z,6.35
2023-02-16T04:16:18.405Z,6.38
2023-02-16T04:17:18.168Z,6.44
2023-02-16T04:18:18.212Z,6.31
2023-02-16T04:19:17.867Z,6.33
2023-02-16T04:20:18.090Z,6.28
2023-02-16T04:21:18.074Z,6.26
2023-02-16T04:22:18.031Z,6.26
2023-02-16T04:23:17.996Z,6.19
2023-02-16T04:24:17.943Z,6.24
2023-02-16T04:25:17.942Z,6.14
2023-02-16T04:26:17.894Z,6.09
2023-02-16T04:27:17.835Z,6.12
2023-02-16T04:28:17.810Z,6.07
2023-02-16T04:29:17.798Z,6.05
2023-02-16T04:30:18.057Z,6.11
2023-02-16T04:31:18.104Z,6.07
2023-02-16T04:32:17.840Z,6.08
2023-02-16T04:33:17.640Z,6.07
2023-02-16T04:34:17.627Z,6.04
2023-02-16T04:35:17.575Z,6.04
2023-02-16T04:36:17.528Z,6.07
2023-02-16T04:37:17.510Z,5.98
2023-02-16T04:38:17.487Z,5.99
2023-02-16T04:39:17.432Z,6.05
2023-02-16T04:40:17.160Z,6.08
2023-02-16T04:41:17.381Z,6.02
2023-02-16T04:42:17.336Z,6.08
2023-02-16T04:43:17.298Z,6.05
2023-02-16T04:44:17.304Z,5.97
2023-02-16T04:45:17.247Z,5.93
2023-02-16T04:46:17.461Z,5.91
2023-02-16T04:47:17.166Z,5.93
2023-02-16T04:48:17.159Z,6.05
2023-02-16T04:49:16.851Z,6.08
2023-02-16T04:50:17.100Z,6.05
2023-02-16T04:51:17.030Z,6.07
2023-02-16T04:52:17.030Z,6.11
2023-02-16T04:53:16.957Z,6.02
2023-02-16T04:54:16.956Z,6.05
2023-02-16T04:55:16.903Z,6.12
2023-02-16T04:56:16.883Z,6.04
2023-02-16T04:57:16.605Z,6.04
2023-02-16T04:58:16.792Z,6.11
2023-02-16T04:59:16.767Z,6.05
2023-02-16T05:00:16.782Z,6.11
2023-02-16T05:01:16.813Z,6.14
2023-02-16T05:02:16.712Z,6.09
2023-02-16T05:03:16.643Z,6.12
2023-02-16T05:04:16.807Z,6.09
2023-02-16T05:05:16.598Z,6.04
2023-02-16T05:06:16.325Z,6.01
2023-02-16T05:07:16.491Z,6.08
2023-02-16T05:08:17.832Z,6.05
2023-02-16T05:09:16.431Z,6.07
2023-02-16T05:10:16.418Z,6.02
2023-02-16T05:11:16.360Z,6.02
2023-02-16T05:12:16.331Z,5.99
2023-02-16T05:13:16.334Z,6.01
2023-02-16T05:14:16.260Z,6.07
2023-02-16T05:15:16.327Z,6.05
2023-02-16T05:16:16.554Z,6.17
2023-02-16T05:17:16.260Z,6.07
2023-02-16T05:18:16.180Z,6.11
2023-02-16T05:19:16.121Z,6.16
2023-02-16T05:20:16.255Z,6.16
2023-02-16T05:21:16.041Z,6.11
2023-02-16T05:22:16.042Z,6.08
2023-02-16T05:23:15.984Z,6.05
2023-02-16T05:24:15.982Z,6.08
2023-02-16T05:25:15.917Z,6.07
2023-02-16T05:26:15.892Z,6.14
2023-02-16T05:27:15.826Z,6.14
2023-02-16T05:28:16.019Z,6.14
2023-02-16T05:29:15.763Z,6.14
2023-02-16T05:30:15.986Z,6.08
2023-02-16T05:31:16.070Z,6.14
2023-02-16T05:32:15.933Z,6.14
2023-02-16T05:33:15.630Z,6.14
2023-02-16T05:34:15.652Z,6.09
2023-02-16T05:35:15.570Z,6.16
2023-02-16T05:36:15.597Z,6.14
2023-02-16T05:37:15.505Z,6.19
2023-02-16T05:38:15.504Z,6.24
2023-02-16T05:39:15.445Z,6.28
2023-02-16T05:40:15.396Z,6.3
2023-02-16T05:41:15.364Z,6.26
2023-02-16T05:42:15.372Z,6.2
2023-02-16T05:43:15.306Z,6.19
2023-02-16T05:44:15.029Z,6.16
2023-02-16T05:45:15.248Z,6.2
2023-02-16T05:46:15.333Z,6.24
2023-02-16T05:47:15.205Z,6.26
2023-02-16T05:48:15.150Z,6.24
2023-02-16T05:49:15.110Z,6.28
2023-02-16T05:50:15.090Z,6.3
2023-02-16T05:51:15.028Z,6.27
2023-02-16T05:52:15.032Z,6.31
2023-02-16T05:53:14.957Z,6.3
2023-02-16T05:54:14.973Z,6.3
2023-02-16T05:55:14.905Z,6.28
2023-02-16T05:56:14.873Z,6.38
2023-02-16T05:57:14.835Z,6.31
2023-02-16T05:58:14.800Z,6.28
2023-02-16T05:59:14.798Z,6.31
2023-02-16T06:00:14.770Z,6.35
2023-02-16T06:01:14.699Z,6.38
2023-02-16T06:02:14.908Z,6.33
2023-02-16T06:03:14.630Z,6.41
2023-02-16T06:04:14.618Z,6.38
2023-02-16T06:05:14.568Z,6.35
2023-02-16T06:06:14.578Z,6.28
2023-02-16T06:07:17.169Z,6.28
2023-02-16T06:08:14.493Z,6.28
2023-02-16T06:09:14.439Z,6.28
2023-02-16T06:10:14.717Z,6.26
2023-02-16T06:11:14.371Z,6.28
2023-02-16T06:12:14.337Z,6.26
2023-02-16T06:13:14.309Z,6.28
2023-02-16T06:14:14.652Z,6.27
2023-02-16T06:15:14.245Z,6.16
2023-02-16T06:16:14.389Z,6.26
2023-02-16T06:17:14.214Z,6.26
2023-02-16T06:18:14.132Z,6.27
2023-02-16T06:19:14.130Z,6.27
2023-02-16T06:20:14.075Z,6.24
2023-02-16T06:21:14.042Z,6.24
2023-02-16T06:22:13.796Z,6.3
2023-02-16T06:23:13.993Z,6.28
2023-02-16T06:24:14.032Z,6.31
2023-02-16T06:25:13.666Z,6.3
2023-02-16T06:26:13.897Z,6.26
2023-02-16T06:27:13.840Z,6.27
2023-02-16T06:28:13.869Z,6.35
2023-02-16T06:29:13.837Z,6.28
2023-02-16T06:30:13.973Z,6.27
2023-02-16T06:31:13.769Z,6.31
2023-02-16T06:32:14.106Z,6.31
2023-02-16T06:33:13.795Z,6.3
2023-02-16T06:34:13.606Z,6.26
2023-02-16T06:35:13.573Z,6.31
2023-02-16T06:36:13.632Z,6.3
2023-02-16T06:37:13.609Z,6.31
2023-02-16T06:38:13.665Z,6.31
2023-02-16T06:39:14.069Z,6.3
2023-02-16T06:40:13.197Z,6.31
2023-02-16T06:41:13.397Z,6.38
2023-02-16T06:42:13.380Z,6.41
2023-02-16T06:43:13.306Z,6.41
2023-02-16T06:44:13.315Z,6.41
2023-02-16T06:45:13.265Z,6.42
2023-02-16T06:46:13.273Z,6.49
2023-02-16T06:47:13.204Z,6.46
2023-02-16T06:48:13.416Z,6.51
2023-02-16T06:49:13.123Z,6.52
2023-02-16T06:50:12.839Z,6.57
2023-02-16T06:51:13.047Z,6.48
2023-02-16T06:52:13.015Z,6.56
2023-02-16T06:53:13.125Z,6.63
2023-02-16T06:54:12.973Z,6.64
2023-02-16T06:55:12.910Z,6.64
2023-02-16T06:56:12.906Z,6.6
2023-02-16T06:57:12.853Z,6.74
2023-02-16T06:58:12.638Z,6.67
2023-02-16T06:59:12.798Z,6.7
2023-02-16T07:00:12.816Z,6.82
2023-02-16T07:01:12.933Z,6.87
2023-02-16T07:02:12.684Z,6.89
2023-02-16T07:04:12.624Z,6.97
2023-02-16T07:05:12.600Z,6.96
2023-02-16T07:06:12.541Z,6.99
2023-02-16T07:07:12.521Z,6.93
2023-02-16T07:08:12.508Z,7.07
2023-02-16T07:09:14.739Z,7.06
2023-02-16T07:10:12.481Z,7.13
2023-02-16T07:11:12.726Z,7.17
2023-02-16T07:12:12.401Z,7.21
2023-02-16T07:13:12.312Z,7.21
2023-02-16T07:14:14.959Z,7.28
2023-02-16T07:15:12.262Z,7.25
2023-02-16T07:16:12.443Z,7.35
2023-02-16T07:17:12.195Z,7.39
2023-02-16T07:18:11.918Z,7.38
2023-02-16T07:19:12.151Z,7.45
2023-02-16T07:20:12.103Z,7.48
2023-02-16T07:21:12.122Z,7.56
2023-02-16T07:22:12.033Z,7.48
2023-02-16T07:23:12.027Z,7.56
2023-02-16T07:24:11.957Z,7.45
2023-02-16T07:25:11.954Z,7.58
2023-02-16T07:26:12.075Z,7.48
2023-02-16T07:27:12.783Z,7.67
2023-02-16T07:28:11.873Z,7.63
2023-02-16T07:29:11.821Z,7.61
2023-02-16T07:30:11.925Z,7.61
2023-02-16T07:31:12.903Z,7.63
2023-02-16T07:32:12.122Z,7.61
2023-02-16T07:33:11.679Z,7.67
2023-02-16T07:34:11.649Z,7.6
2023-02-16T07:35:11.620Z,7.75
2023-02-16T07:36:11.606Z,7.67
2023-02-16T07:37:11.567Z,7.76
2023-02-16T07:38:11.294Z,7.77
2023-02-16T07:39:11.631Z,7.76
2023-02-16T07:40:11.450Z,7.76
2023-02-16T07:41:15.240Z,7.8
2023-02-16T07:42:11.383Z,7.83
2023-02-16T07:43:11.362Z,7.8
2023-02-16T07:44:11.353Z,7.82
2023-02-16T07:45:11.298Z,7.82
2023-02-16T07:46:11.768Z,7.83
2023-02-16T07:47:11.234Z,7.77
2023-02-16T07:48:11.205Z,7.94
2023-02-16T07:49:11.173Z,7.93
2023-02-16T07:50:11.134Z,7.9
2023-02-16T07:51:11.744Z,7.93
2023-02-16T07:52:11.081Z,7.95
2023-02-16T07:53:12.865Z,7.97
2023-02-16T07:54:11.008Z,7.95
2023-02-16T07:55:13.979Z,7.98
2023-02-16T07:56:10.948Z,8
2023-02-16T07:57:10.949Z,8.03
2023-02-16T07:58:10.888Z,8.09
2023-02-16T07:59:10.852Z,8.06
2023-02-16T08:00:10.867Z,8.06
2023-02-16T08:01:11.323Z,8.06
2023-02-16T08:02:11.128Z,8.06
2023-02-16T08:03:11.084Z,8.15
2023-02-16T08:04:10.707Z,8.1
2023-02-16T08:05:10.671Z,8.23
2023-02-16T08:06:10.643Z,8.23
2023-02-16T08:07:10.593Z,8.23
2023-02-16T08:08:10.587Z,8.19
2023-02-16T08:09:10.577Z,8.2
2023-02-16T08:10:10.497Z,8.24
2023-02-16T08:11:10.890Z,8.26
2023-02-16T08:12:10.455Z,8.23
2023-02-16T08:13:10.442Z,8.27
2023-02-16T08:14:10.390Z,8.33
2023-02-16T08:15:10.108Z,8.33
2023-02-16T08:16:10.908Z,8.28
2023-02-16T08:17:10.565Z,8.27
2023-02-16T08:18:10.384Z,8.36
2023-02-16T08:19:10.488Z,8.36
2023-02-16T08:20:10.198Z,8.38
2023-02-16T08:21:10.301Z,8.37
2023-02-16T08:22:10.313Z,8.41
2023-02-16T08:23:10.117Z,8.48
2023-02-16T08:24:10.095Z,8.45
2023-02-16T08:25:11.802Z,8.46
2023-02-16T08:26:10.620Z,8.64
2023-02-16T08:27:09.991Z,8.61
2023-02-16T08:28:09.987Z,8.66
2023-02-16T08:29:10.043Z,8.66
2023-02-16T08:30:10.143Z,8.7
2023-02-16T08:31:10.082Z,8.74
2023-02-16T08:32:10.185Z,8.81
2023-02-16T08:33:09.789Z,8.76
2023-02-16T08:34:09.855Z,8.84
2023-02-16T08:35:09.737Z,9
2023-02-16T08:36:10.135Z,8.95
2023-02-16T08:37:09.440Z,8.99
2023-02-16T08:38:09.205Z,9.03
2023-02-16T08:39:09.604Z,9.06
2023-02-16T08:40:09.569Z,9.1
2023-02-16T08:41:09.297Z,9.14
2023-02-16T08:42:09.563Z,9.21
2023-02-16T08:43:09.483Z,9.28
2023-02-16T08:44:09.481Z,9.22
2023-02-16T08:45:09.441Z,9.32
2023-02-16T08:46:10.461Z,9.43
2023-02-16T08:47:09.371Z,9.39
2023-02-16T08:48:09.372Z,9.43
2023-02-16T08:49:09.076Z,9.41
2023-02-16T08:50:09.526Z,9.48
2023-02-16T08:51:09.259Z,9.51
2023-02-16T08:52:09.218Z,9.48
2023-02-16T08:53:09.211Z,9.58
2023-02-16T08:54:10.793Z,9.61
2023-02-16T08:55:09.121Z,9.65
2023-02-16T08:56:09.708Z,9.76
2023-02-16T08:57:09.113Z,9.74
2023-02-16T08:58:09.045Z,9.73
2023-02-16T08:59:08.773Z,9.83
2023-02-16T09:00:08.742Z,9.8
2023-02-16T09:01:09.069Z,9.76
2023-02-16T09:02:09.180Z,9.82
2023-02-16T09:03:08.882Z,9.82
2023-02-16T09:04:08.877Z,9.8
2023-02-16T09:05:08.820Z,9.89
2023-02-16T09:06:09.816Z,9.87
2023-02-16T09:07:08.755Z,9.89
2023-02-16T09:08:08.533Z,9.97
2023-02-16T09:09:08.740Z,9.92
2023-02-16T09:10:08.429Z,10.04
2023-02-16T09:11:09.206Z,10.04
2023-02-16T09:12:08.606Z,10.1
2023-02-16T09:13:08.583Z,10.07
2023-02-16T09:14:08.304Z,10.16
2023-02-16T09:15:08.536Z,10.17
2023-02-16T09:16:09.137Z,10.33
2023-02-16T09:17:08.838Z,10.33
2023-02-16T09:18:08.455Z,10.3
2023-02-16T09:19:08.409Z,10.3
2023-02-16T09:20:08.441Z,10.4
2023-02-16T09:21:08.337Z,10.37
2023-02-16T09:22:08.350Z,10.42
2023-02-16T09:23:08.280Z,10.4
2023-02-16T09:24:08.338Z,10.35
2023-02-16T09:25:08.248Z,10.35
2023-02-16T09:26:08.879Z,10.34
2023-02-16T09:27:08.161Z,10.35
2023-02-16T09:28:08.239Z,10.41
2023-02-16T09:29:08.113Z,10.44
2023-02-16T09:30:08.156Z,10.41
2023-02-16T09:31:08.386Z,10.54
2023-02-16T09:32:07.873Z,10.54
2023-02-16T09:33:07.917Z,10.57
2023-02-16T09:34:07.735Z,10.59
2023-02-16T09:35:07.924Z,10.64
2023-02-16T09:36:08.852Z,10.74
2023-02-16T09:37:07.875Z,10.75
2023-02-16T09:38:18.756Z,10.71
2023-02-16T09:39:07.575Z,10.87
2023-02-16T09:40:07.829Z,10.82
2023-02-16T09:41:07.936Z,10.97
2023-02-16T09:42:07.745Z,10.96
2023-02-16T09:43:07.487Z,11.15
2023-02-16T09:44:07.689Z,11.22
2023-02-16T09:45:07.702Z,11.32
2023-02-16T09:46:08.622Z,11.43
2023-02-16T09:47:07.607Z,11.36
2023-02-16T09:48:07.591Z,11.47
2023-02-16T09:49:07.604Z,11.57
2023-02-16T09:50:07.492Z,11.62
2023-02-16T09:51:07.245Z,11.7
2023-02-16T09:52:07.482Z,11.86
2023-02-16T09:53:07.427Z,11.88
2023-02-16T09:54:07.419Z,11.94
2023-02-16T09:55:07.357Z,11.94
2023-02-16T09:56:08.334Z,12.02
2023-02-16T09:57:07.308Z,11.91
2023-02-16T09:58:07.275Z,11.95
2023-02-16T09:59:07.277Z,12.07
2023-02-16T10:00:07.059Z,12
2023-02-16T10:01:07.333Z,12.02
2023-02-16T10:02:07.204Z,11.97
2023-02-16T10:03:07.135Z,12.07
2023-02-16T10:04:06.911Z,12.04
2023-02-16T10:05:07.224Z,12.07
2023-02-16T10:06:07.985Z,12.02
2023-02-16T10:07:07.022Z,12
2023-02-16T10:08:07.054Z,11.95
2023-02-16T10:09:06.979Z,11.95
2023-02-16T10:10:07.070Z,12.02
2023-02-16T10:11:07.578Z,11.94
2023-02-16T10:12:06.901Z,11.86
2023-02-16T10:13:06.852Z,11.91
2023-02-16T10:14:06.945Z,11.91
2023-02-16T10:15:06.812Z,11.73
2023-02-16T10:16:06.626Z,11.73
2023-02-16T10:17:06.520Z,11.81
2023-02-16T10:18:06.738Z,11.73
2023-02-16T10:19:06.718Z,11.75
2023-02-16T10:20:06.658Z,11.7
2023-02-16T10:21:07.678Z,11.7
2023-02-16T10:22:06.627Z,11.73
2023-02-16T10:23:06.584Z,11.7
2023-02-16T10:24:06.590Z,11.63
2023-02-16T10:25:06.291Z,11.66
2023-02-16T10:26:06.635Z,11.69
2023-02-16T10:27:17.695Z,11.52
2023-02-16T10:28:06.443Z,11.57
2023-02-16T10:29:06.407Z,11.63
2023-02-16T10:30:06.546Z,11.6
2023-02-16T10:31:07.646Z,11.63
2023-02-16T10:32:06.866Z,11.63
2023-02-16T10:33:06.355Z,11.57
2023-02-16T10:34:06.270Z,11.63
2023-02-16T10:35:06.272Z,11.51
2023-02-16T10:36:06.219Z,11.47
2023-02-16T10:37:05.986Z,11.4
2023-02-16T10:38:06.186Z,11.45
2023-02-16T10:39:06.174Z,11.36
2023-02-16T10:40:06.171Z,11.33
2023-02-16T10:41:06.693Z,11.35
2023-02-16T10:42:06.079Z,11.19
2023-02-16T10:43:06.042Z,11.25
2023-02-16T10:44:05.754Z,11.15
2023-02-16T10:45:06.009Z,11.22
2023-02-16T10:46:06.118Z,11.11
2023-02-16T10:47:05.924Z,11.11
2023-02-16T10:48:05.900Z,11.07
2023-02-16T10:49:05.865Z,11.17
2023-02-16T10:50:05.836Z,11.02
2023-02-16T10:51:06.424Z,10.94
2023-02-16T10:52:05.787Z,11
2023-02-16T10:53:05.937Z,10.97
2023-02-16T10:54:05.735Z,10.96
2023-02-16T10:55:05.689Z,10.94
2023-02-16T10:56:05.712Z,10.87
2023-02-16T10:57:05.868Z,10.94
2023-02-16T10:58:09.175Z,10.82
2023-02-16T10:59:05.343Z,10.87
2023-02-16T11:00:05.309Z,10.84
2023-02-16T11:01:06.240Z,10.81
2023-02-16T11:02:05.489Z,10.79
2023-02-16T11:03:05.246Z,10.92
2023-02-16T11:04:05.618Z,10.92
2023-02-16T11:05:05.388Z,10.84
2023-02-16T11:06:06.030Z,10.92
2023-02-16T11:07:05.350Z,10.92
2023-02-16T11:08:05.341Z,10.93
2023-02-16T11:09:05.359Z,10.97
2023-02-16T11:10:05.042Z,11
2023-02-16T11:11:05.901Z,11.08
2023-02-16T11:12:05.300Z,11
2023-02-16T11:13:05.166Z,11.12
2023-02-16T11:14:06.393Z,11.19
2023-02-16T11:15:05.107Z,11.19
2023-02-16T11:16:05.264Z,11.35
2023-02-16T11:17:05.235Z,11.36
2023-02-16T11:18:05.689Z,11.43
2023-02-16T11:19:04.986Z,11.5
2023-02-16T11:20:06.847Z,11.47
2023-02-16T11:21:05.852Z,11.63
2023-02-16T11:22:04.653Z,11.66
2023-02-16T11:23:04.633Z,11.75
2023-02-16T11:24:04.849Z,11.83
2023-02-16T11:25:05.198Z,11.95
2023-02-16T11:26:04.828Z,11.9
2023-02-16T11:27:04.758Z,12.06
2023-02-16T11:28:04.807Z,12.13
2023-02-16T11:29:04.701Z,12.17
2023-02-16T11:30:04.840Z,12.18
2023-02-16T11:31:05.544Z,12.21
2023-02-16T11:32:04.959Z,12.31
2023-02-16T11:33:04.644Z,12.32
2023-02-16T11:34:07.849Z,12.27
2023-02-16T11:35:04.591Z,12.35
2023-02-16T11:36:04.517Z,12.42
2023-02-16T11:37:04.496Z,12.57
2023-02-16T11:38:04.219Z,12.55
2023-02-16T11:39:04.468Z,12.55
2023-02-16T11:40:04.424Z,12.47
2023-02-16T11:41:05.459Z,12.55
2023-02-16T11:42:04.347Z,12.5
2023-02-16T11:43:04.501Z,12.54
2023-02-16T11:44:04.321Z,12.43
2023-02-16T11:45:04.188Z,12.42
2023-02-16T11:46:04.921Z,12.39
2023-02-16T11:47:04.232Z,12.36
2023-02-16T11:48:03.932Z,12.43
2023-02-16T11:49:03.901Z,12.4
2023-02-16T11:50:04.140Z,12.49
2023-02-16T11:51:04.538Z,12.55
2023-02-16T11:52:03.829Z,12.49
2023-02-16T11:53:04.034Z,12.55
2023-02-16T11:54:04.005Z,12.49
2023-02-16T11:55:03.733Z,12.6
2023-02-16T11:56:04.061Z,12.61
2023-02-16T11:57:03.972Z,12.7
2023-02-16T11:58:03.669Z,12.82
2023-02-16T11:59:03.884Z,12.85
2023-02-16T12:00:04.037Z,12.8
2023-02-16T12:01:04.611Z,12.83
2023-02-16T12:02:03.873Z,12.86
2023-02-16T12:03:03.788Z,12.82
2023-02-16T12:04:04.001Z,12.91
2023-02-16T12:05:03.824Z,12.87
2023-02-16T12:06:03.693Z,12.83
2023-02-16T12:07:03.660Z,12.85
2023-02-16T12:08:03.638Z,12.7
2023-02-16T12:09:03.605Z,12.55
2023-02-16T12:10:03.587Z,12.53
2023-02-16T12:11:03.866Z,12.54
2023-02-16T12:12:03.286Z,12.58
2023-02-16T12:13:03.516Z,12.46
2023-02-16T12:14:03.883Z,12.37
2023-02-16T12:15:03.460Z,12.4
2023-02-16T12:16:05.665Z,12.36
2023-02-16T12:17:03.147Z,12.39
2023-02-16T12:18:03.440Z,12.24
2023-02-16T12:19:03.331Z,12.25
2023-02-16T12:20:03.296Z,12.29
2023-02-16T12:21:03.063Z,12.18
2023-02-16T12:22:03.251Z,12.15
2023-02-16T12:23:03.240Z,12.09
2023-02-16T12:24:03.218Z,12.17
2023-02-16T12:25:03.168Z,11.97
2023-02-16T12:26:03.487Z,12.03
2023-02-16T12:27:03.109Z,11.97
2023-02-16T12:28:03.206Z,12.02
2023-02-16T12:29:03.103Z,11.97
2023-02-16T12:30:03.134Z,11.94
2023-02-16T12:31:03.158Z,11.91
2023-02-16T12:32:03.194Z,12.04
2023-02-16T12:33:02.929Z,12.03
2023-02-16T12:34:03.036Z,11.99
2023-02-16T12:35:02.894Z,11.91
2023-02-16T12:36:03.269Z,11.95
2023-02-16T12:37:02.824Z,11.97
2023-02-16T12:38:02.801Z,11.97
2023-02-16T12:39:02.796Z,11.87
2023-02-16T12:40:02.771Z,11.91
2023-02-16T12:41:03.054Z,11.9
2023-02-16T12:42:02.704Z,11.78
2023-02-16T12:43:02.659Z,11.75
2023-02-16T12:44:02.645Z,11.7
2023-02-16T12:45:02.645Z,11.72
2023-02-16T12:46:02.895Z,11.63
2023-02-16T12:47:02.554Z,11.63
2023-02-16T12:48:02.548Z,11.48
2023-02-16T12:49:02.480Z,11.45
2023-02-16T12:50:02.572Z,11.48
2023-02-16T12:51:02.741Z,11.43
2023-02-16T12:52:03.992Z,11.41
2023-02-16T12:53:02.371Z,11.4
2023-02-16T12:54:02.340Z,11.41
2023-02-16T12:55:02.313Z,11.36
2023-02-16T12:56:02.547Z,11.35
2023-02-16T12:57:02.384Z,11.48
2023-02-16T12:58:01.997Z,11.54
2023-02-16T12:59:02.303Z,11.5
2023-02-16T13:00:02.194Z,11.57
2023-02-16T13:01:02.327Z,11.54
2023-02-16T13:02:02.115Z,11.68
2023-02-16T13:03:04.107Z,11.68
2023-02-16T13:04:02.105Z,11.72
2023-02-16T13:05:02.024Z,11.72
2023-02-16T13:06:02.085Z,11.75
2023-02-16T13:07:01.760Z,11.72
2023-02-16T13:08:01.935Z,11.73
2023-02-16T13:09:02.085Z,11.83
2023-02-16T13:10:02.052Z,11.69
2023-02-16T13:11:01.815Z,11.77
2023-02-16T13:12:04.683Z,11.81
2023-02-16T13:13:01.844Z,11.75
2023-02-16T13:14:01.771Z,11.7